createdAt,value
2022-09-23T00:08:57.296Z,4.87
2022-09-23T00:19:03.504Z,4.70
2022-09-23T00:29:09.265Z,4.50
2022-09-23T00:39:15.020Z,4.34
2022-09-23T00:49:30.290Z,4.22
2022-09-23T00:59:36.474Z,4.07
2022-09-23T01:09:42.222Z,3.88
2022-09-23T01:20:14.749Z,3.75
2022-09-23T01:30:45.740Z,3.68
2022-09-23T01:40:59.558Z,3.51
2022-09-23T01:51:10.673Z,3.40
2022-09-23T02:01:21.794Z,3.32
2022-09-23T02:11:27.628Z,3.18
2022-09-23T02:21:37.603Z,3.02
2022-09-23T02:31:46.945Z,2.90
2022-09-23T02:42:00.488Z,2.71
2022-09-23T02:52:07.738Z,2.57
2022-09-23T03:02:29.968Z,2.49
2022-09-23T03:12:43.274Z,2.56
2022-09-23T03:22:55.665Z,2.91
2022-09-23T03:33:04.332Z,3.15
2022-09-23T03:43:11.662Z,3.36
2022-09-23T03:53:19.026Z,3.65
2022-09-23T04:03:29.380Z,3.93
2022-09-23T04:13:35.304Z,4.04
2022-09-23T04:23:41.414Z,4.18
2022-09-23T04:33:47.294Z,4.35
2022-09-23T04:43:53.363Z,4.51
2022-09-23T04:53:59.289Z,4.67
2022-09-23T05:04:07.272Z,4.89
2022-09-23T05:14:13.192Z,5.07
2022-09-23T05:24:19.359Z,5.28
2022-09-23T05:34:25.790Z,5.47
2022-09-23T05:44:31.672Z,5.82
2022-09-23T05:54:38.025Z,6.25
2022-09-23T06:04:44.135Z,6.64
2022-09-23T06:14:50.790Z,7.31
2022-09-23T06:24:56.653Z,8.14
2022-09-23T06:35:02.628Z,8.79
2022-09-23T06:45:11.898Z,10.28
2022-09-23T06:55:17.956Z,13.72
2022-09-23T07:05:23.968Z,16.86
2022-09-23T07:15:29.852Z,19.58
2022-09-23T07:25:35.771Z,24.21
2022-09-23T07:35:43.681Z,23.82
2022-09-23T07:45:49.569Z,25.25
2022-09-23T07:55:56.981Z,26.12
2022-09-23T08:06:11.263Z,26.47
2022-09-23T08:16:17.770Z,28.17
2022-09-23T08:26:24.120Z,24.15
2022-09-23T08:36:30.025Z,23.56
2022-09-23T08:46:40.186Z,22.93
2022-09-23T08:56:52.312Z,21.15
2022-09-23T09:07:31.834Z,19.76
2022-09-23T09:17:38.446Z,18.08
2022-09-23T09:27:44.902Z,17.06
2022-09-23T09:37:53.566Z,17.09
2022-09-23T09:48:11.044Z,16.82
2022-09-23T09:58:17.023Z,16.02
2022-09-23T10:08:28.036Z,16.18
2022-09-23T10:18:37.542Z,16.49
2022-09-23T10:28:52.013Z,16.59
2022-09-23T10:39:20.743Z,15.39
2022-09-23T10:49:52.474Z,14.63
2022-09-23T11:00:03.672Z,14.46
2022-09-23T11:10:53.047Z,14.66
2022-09-23T11:21:10.160Z,15.37
2022-09-23T11:31:28.348Z,15.18
2022-09-23T11:41:34.078Z,14.78
2022-09-23T11:51:45.743Z,14.58
2022-09-23T12:01:56.227Z,14.82
2022-09-23T12:12:12.553Z,15.02
2022-09-23T12:22:36.753Z,15.02
2022-09-23T12:32:43.378Z,15.14
2022-09-23T12:42:50.755Z,14.83
2022-09-23T12:52:57.307Z,14.67
2022-09-23T13:03:21.267Z,14.74
2022-09-23T13:13:31.774Z,15.12
2022-09-23T13:23:38.828Z,15.46
2022-09-23T13:33:47.400Z,15.07
2022-09-23T13:43:58.817Z,14.74
2022-09-23T13:54:05.900Z,14.96
2022-09-23T14:04:26.171Z,14.76
2022-09-23T14:14:35.924Z,14.39
2022-09-23T14:24:42.083Z,14.19
2022-09-23T14:34:51.132Z,14.31
2022-09-23T14:44:57.288Z,14.21
2022-09-23T14:55:03.572Z,13.86
2022-09-23T15:05:17.846Z,13.99
2022-09-23T15:15:29.070Z,14.10
2022-09-23T15:25:37.118Z,14.08
2022-09-23T15:35:47.490Z,13.79
2022-09-23T15:45:55.949Z,13.41
2022-09-23T15:56:02.144Z,13.00
2022-09-23T16:06:13.577Z,12.53
2022-09-23T16:16:21.250Z,11.98
2022-09-23T16:26:29.751Z,11.42
2022-09-23T16:36:39.593Z,10.85
2022-09-23T16:46:45.478Z,10.39
2022-09-23T16:56:52.394Z,9.96
2022-09-23T17:06:59.328Z,9.59
2022-09-23T17:17:05.981Z,9.30
2022-09-23T17:27:11.887Z,9.11
2022-09-23T17:37:18.010Z,9.09
2022-09-23T17:47:23.883Z,9.05
2022-09-23T17:57:29.814Z,8.96
2022-09-23T18:07:35.858Z,8.95
2022-09-23T18:17:41.764Z,8.93
2022-09-23T18:27:47.637Z,8.93
2022-09-23T18:37:53.499Z,8.90
2022-09-23T18:48:16.969Z,8.87
2022-09-23T18:58:23.560Z,8.80
2022-09-23T19:08:29.537Z,8.70
2022-09-23T19:18:37.180Z,8.60
2022-09-23T19:28:47.945Z,8.51
2022-09-23T19:38:56.984Z,8.44
2022-09-23T19:49:03.872Z,8.31
2022-09-23T19:59:09.779Z,8.09
2022-09-23T20:09:15.681Z,7.78
2022-09-23T20:19:22.009Z,7.48
2022-09-23T20:29:27.916Z,7.24
2022-09-23T20:39:33.912Z,7.13
2022-09-23T20:49:42.441Z,6.99
2022-09-23T20:59:49.746Z,6.92
2022-09-23T21:09:55.760Z,6.92
2022-09-23T21:20:01.916Z,6.95
2022-09-23T21:30:09.956Z,6.85
2022-09-23T21:40:34.173Z,6.86
2022-09-23T21:50:41.129Z,6.77
2022-09-23T22:00:47.025Z,6.79
2022-09-23T22:10:52.966Z,6.85
2022-09-23T22:21:00.070Z,6.88
2022-09-23T22:31:23.950Z,6.93
2022-09-23T22:41:30.182Z,6.98
2022-09-23T22:51:36.327Z,6.96
2022-09-23T23:01:43.188Z,7.00
2022-09-23T23:11:49.432Z,6.97
2022-09-23T23:21:55.439Z,6.98
2022-09-23T23:32:01.402Z,7.04
2022-09-23T23:42:08.155Z,7.08
2022-09-23T23:52:14.041Z,7.12
